createdAt,value
2022-11-17T00:01:52.446Z,4.90
2022-11-17T00:04:19.039Z,4.60
2022-11-17T00:06:45.753Z,5.87
2022-11-17T00:09:17.262Z,4.73
2022-11-17T00:12:03.950Z,4.93
2022-11-17T00:14:36.391Z,5.23
2022-11-17T00:17:05.389Z,4.77
2022-11-17T00:19:50.808Z,4.50
2022-11-17T00:22:17.453Z,5.23
2022-11-17T00:24:44.161Z,5.07
2022-11-17T00:27:10.699Z,4.93
2022-11-17T00:29:39.355Z,5.20
2022-11-17T00:32:25.537Z,4.60
2022-11-17T00:34:52.082Z,4.37
2022-11-17T00:37:18.747Z,5.37
2022-11-17T00:39:45.383Z,4.93
2022-11-17T00:42:12.321Z,5.00
2022-11-17T00:44:39.408Z,4.80
2022-11-17T00:47:06.399Z,4.77
2022-11-17T00:49:33.097Z,6.07
2022-11-17T00:51:59.899Z,4.80
2022-11-17T00:54:26.477Z,5.03
2022-11-17T00:56:53.105Z,4.57
2022-11-17T00:59:19.701Z,5.73
2022-11-17T01:01:46.421Z,4.90
2022-11-17T01:04:15.043Z,4.53
2022-11-17T01:06:47.155Z,5.50
2022-11-17T01:09:16.901Z,5.50
2022-11-17T01:11:44.064Z,5.30
2022-11-17T01:14:20.365Z,4.80
2022-11-17T01:16:47.211Z,5.10
2022-11-17T01:19:15.192Z,4.47
2022-11-17T01:21:41.897Z,5.63
2022-11-17T01:24:11.021Z,5.10
2022-11-17T01:26:39.043Z,5.17
2022-11-17T01:29:06.450Z,5.43
2022-11-17T01:31:35.783Z,5.50
2022-11-17T01:34:02.348Z,5.70
2022-11-17T01:36:51.803Z,5.67
2022-11-17T01:39:18.468Z,5.37
2022-11-17T01:41:45.383Z,5.37
2022-11-17T01:44:49.779Z,5.60
2022-11-17T01:47:23.659Z,5.13
2022-11-17T01:49:55.969Z,4.93
2022-11-17T01:52:24.552Z,4.73
2022-11-17T01:54:53.092Z,4.63
2022-11-17T01:57:27.299Z,5.03
2022-11-17T02:00:04.919Z,5.40
2022-11-17T02:02:33.055Z,4.57
2022-11-17T02:05:10.229Z,5.07
2022-11-17T02:07:39.303Z,4.50
2022-11-17T02:10:06.948Z,5.40
2022-11-17T02:12:35.404Z,4.70
2022-11-17T02:15:03.435Z,5.13
2022-11-17T02:17:39.229Z,4.90
2022-11-17T02:20:13.594Z,5.80
2022-11-17T02:23:04.856Z,4.80
2022-11-17T02:25:52.725Z,5.13
2022-11-17T02:28:34.260Z,4.73
2022-11-17T02:31:21.757Z,5.60
2022-11-17T02:34:11.701Z,4.40
2022-11-17T02:36:57.812Z,5.13
2022-11-17T02:39:26.194Z,5.83
2022-11-17T02:41:58.310Z,5.70
2022-11-17T02:44:37.098Z,5.17
2022-11-17T02:47:08.210Z,5.47
2022-11-17T02:49:38.619Z,5.53
2022-11-17T02:52:06.459Z,5.07
2022-11-17T02:54:33.577Z,5.40
2022-11-17T02:57:00.177Z,5.37
2022-11-17T02:59:34.254Z,4.90
2022-11-17T03:02:12.948Z,5.63
2022-11-17T03:05:03.496Z,5.13
2022-11-17T03:07:45.799Z,5.30
2022-11-17T03:10:21.056Z,4.60
2022-11-17T03:13:06.540Z,4.90
2022-11-17T03:15:59.464Z,5.53
2022-11-17T03:18:50.894Z,5.30
2022-11-17T03:21:40.641Z,5.67
2022-11-17T03:24:07.471Z,5.37
2022-11-17T03:26:38.504Z,5.03
2022-11-17T03:29:10.399Z,5.33
2022-11-17T03:31:38.729Z,5.53
2022-11-17T03:34:09.827Z,5.03
2022-11-17T03:36:42.192Z,4.83
2022-11-17T03:39:15.580Z,5.30
2022-11-17T03:41:45.987Z,5.43
2022-11-17T03:44:15.569Z,5.07
2022-11-17T03:46:44.288Z,4.73
2022-11-17T03:49:40.063Z,5.33
2022-11-17T03:52:07.050Z,4.50
2022-11-17T03:54:35.239Z,5.10
2022-11-17T03:57:11.012Z,4.97
2022-11-17T03:59:43.756Z,4.80
2022-11-17T04:02:21.583Z,4.77
2022-11-17T04:05:06.253Z,5.03
2022-11-17T04:07:33.622Z,4.90
2022-11-17T04:10:00.368Z,5.47
2022-11-17T04:12:45.900Z,4.63
2022-11-17T04:15:31.402Z,4.93
2022-11-17T04:17:58.063Z,4.60
2022-11-17T04:20:24.836Z,4.80
2022-11-17T04:23:06.949Z,4.83
2022-11-17T04:25:56.965Z,4.73
2022-11-17T04:28:37.296Z,4.97
2022-11-17T04:31:18.515Z,5.13
2022-11-17T04:33:56.612Z,4.53
2022-11-17T04:36:25.926Z,4.63
2022-11-17T04:38:55.456Z,4.23
2022-11-17T04:41:42.776Z,4.40
2022-11-17T04:44:11.832Z,4.00
2022-11-17T04:46:40.269Z,4.23
2022-11-17T04:49:07.918Z,4.43
2022-11-17T04:51:35.595Z,5.13
2022-11-17T04:54:03.027Z,4.53
2022-11-17T04:56:29.801Z,4.83
2022-11-17T04:58:56.933Z,3.87
2022-11-17T05:01:24.826Z,4.63
2022-11-17T05:04:00.430Z,4.07
2022-11-17T05:06:32.681Z,4.50
2022-11-17T05:09:01.328Z,4.17
2022-11-17T05:11:48.441Z,4.60
2022-11-17T05:14:18.181Z,4.40
2022-11-17T05:17:09.965Z,4.17
2022-11-17T05:19:40.151Z,3.83
2022-11-17T05:22:28.157Z,4.60
2022-11-17T05:24:55.456Z,3.63
2022-11-17T05:27:23.045Z,4.17
2022-11-17T05:29:49.841Z,4.10
2022-11-17T05:32:16.509Z,4.17
2022-11-17T05:34:43.202Z,3.70
2022-11-17T05:37:09.861Z,4.10
2022-11-17T05:39:36.567Z,4.67
2022-11-17T05:42:03.665Z,4.43
2022-11-17T05:44:30.670Z,4.30
2022-11-17T05:46:57.210Z,3.57
2022-11-17T05:49:24.288Z,4.60
2022-11-17T05:51:52.857Z,4.00
2022-11-17T05:54:20.113Z,3.73
2022-11-17T05:57:21.090Z,3.47
2022-11-17T05:59:55.242Z,2.93
2022-11-17T06:02:27.507Z,3.40
2022-11-17T06:04:54.237Z,3.77
2022-11-17T06:07:21.237Z,3.30
2022-11-17T06:09:47.965Z,3.97
2022-11-17T06:12:15.176Z,4.03
2022-11-17T06:14:41.768Z,3.20
2022-11-17T06:17:22.456Z,3.13
2022-11-17T06:19:57.028Z,3.40
2022-11-17T06:22:26.654Z,3.53
2022-11-17T06:24:54.122Z,3.20
2022-11-17T06:27:21.285Z,2.93
2022-11-17T06:29:48.619Z,3.20
2022-11-17T06:32:17.308Z,3.30
2022-11-17T06:34:49.190Z,2.60
2022-11-17T06:37:18.725Z,3.13
2022-11-17T06:39:45.314Z,3.23
2022-11-17T06:42:12.046Z,2.70
2022-11-17T06:44:39.197Z,2.83
2022-11-17T06:47:06.126Z,2.27
2022-11-17T06:49:32.730Z,2.70
2022-11-17T06:51:59.313Z,3.10
2022-11-17T06:54:25.903Z,2.60
2022-11-17T06:56:52.530Z,2.70
2022-11-17T06:59:19.110Z,2.53
2022-11-17T07:01:45.673Z,2.77
2022-11-17T07:04:12.302Z,2.30
2022-11-17T07:06:39.043Z,3.30
2022-11-17T07:09:05.729Z,2.70
2022-11-17T07:11:34.598Z,2.53
2022-11-17T07:14:01.189Z,2.57
2022-11-17T07:16:29.147Z,2.30
2022-11-17T07:18:55.725Z,2.30
2022-11-17T07:21:22.403Z,2.57
2022-11-17T07:23:49.053Z,2.70
2022-11-17T07:26:15.600Z,1.90
2022-11-17T07:28:42.217Z,2.37
2022-11-17T07:31:09.330Z,2.00
2022-11-17T07:33:36.991Z,1.97
2022-11-17T07:36:06.192Z,2.40
2022-11-17T07:38:34.548Z,2.10
2022-11-17T07:41:01.775Z,2.17
2022-11-17T07:43:28.913Z,1.90
2022-11-17T07:45:55.899Z,2.27
2022-11-17T07:48:22.530Z,1.90
2022-11-17T07:50:49.270Z,2.00
2022-11-17T07:53:15.862Z,2.03
2022-11-17T07:55:42.412Z,2.13
2022-11-17T07:58:09.056Z,2.60
2022-11-17T08:00:36.607Z,1.93
2022-11-17T08:03:04.488Z,1.90
2022-11-17T08:05:35.915Z,2.33
2022-11-17T08:08:07.884Z,1.97
2022-11-17T08:10:34.580Z,1.90
2022-11-17T08:13:01.304Z,1.60
2022-11-17T08:15:29.427Z,1.57
2022-11-17T08:17:57.581Z,1.70
2022-11-17T08:20:24.966Z,1.63
2022-11-17T08:22:52.865Z,1.63
2022-11-17T08:25:20.216Z,1.53
2022-11-17T08:27:48.631Z,2.10
2022-11-17T08:30:15.751Z,1.43
2022-11-17T08:32:47.627Z,1.90
2022-11-17T08:35:14.258Z,1.90
2022-11-17T08:37:41.269Z,1.63
2022-11-17T08:40:08.356Z,1.80
2022-11-17T08:42:34.939Z,1.83
2022-11-17T08:45:01.496Z,1.70
2022-11-17T08:47:28.097Z,1.37
2022-11-17T08:49:54.653Z,1.60
2022-11-17T08:52:21.875Z,1.60
2022-11-17T08:54:49.704Z,1.50
2022-11-17T08:57:16.306Z,1.67
2022-11-17T08:59:42.896Z,1.73
2022-11-17T09:02:12.161Z,1.50
2022-11-17T09:04:38.808Z,1.80
2022-11-17T09:07:05.833Z,1.40
2022-11-17T09:09:33.379Z,1.57
2022-11-17T09:12:00.642Z,1.63
2022-11-17T09:14:28.294Z,1.13
2022-11-17T09:16:54.861Z,1.47
2022-11-17T09:19:21.461Z,1.90
2022-11-17T09:21:48.077Z,1.53
2022-11-17T09:24:14.821Z,1.73
2022-11-17T09:26:41.840Z,1.57
2022-11-17T09:29:09.196Z,1.50
2022-11-17T09:31:36.238Z,1.47
2022-11-17T09:34:05.520Z,1.60
2022-11-17T09:36:33.106Z,1.23
2022-11-17T09:38:59.674Z,1.70
2022-11-17T09:41:28.034Z,1.67
2022-11-17T09:44:23.457Z,1.60
2022-11-17T09:47:01.791Z,1.50
2022-11-17T09:49:34.255Z,1.50
2022-11-17T09:52:11.008Z,1.50
2022-11-17T09:54:59.549Z,1.30
2022-11-17T09:57:37.849Z,1.47
2022-11-17T10:00:15.693Z,1.20
2022-11-17T10:02:43.025Z,2.03
2022-11-17T10:05:32.983Z,1.83
2022-11-17T10:08:06.140Z,1.97
2022-11-17T10:10:48.592Z,2.03
2022-11-17T10:13:30.536Z,5.70
2022-11-17T10:16:01.464Z,1.83
2022-11-17T10:18:37.587Z,1.67
2022-11-17T10:21:06.670Z,1.60
2022-11-17T10:23:46.879Z,1.80
2022-11-17T10:26:15.834Z,1.23
2022-11-17T10:28:42.675Z,1.40
2022-11-17T10:31:13.247Z,1.40
2022-11-17T10:33:50.681Z,1.10
2022-11-17T10:36:24.451Z,1.53
2022-11-17T10:38:54.182Z,1.40
2022-11-17T10:41:37.365Z,1.20
2022-11-17T10:44:15.208Z,1.30
2022-11-17T10:47:02.954Z,1.40
2022-11-17T10:49:37.864Z,1.17
2022-11-17T10:52:16.437Z,1.10
2022-11-17T10:54:43.887Z,1.30
2022-11-17T10:57:24.561Z,1.03
2022-11-17T10:59:57.679Z,1.37
2022-11-17T11:02:30.520Z,1.50
2022-11-17T11:05:07.530Z,1.40
2022-11-17T11:07:34.469Z,1.70
2022-11-17T11:10:04.531Z,1.30
2022-11-17T11:12:56.640Z,1.50
2022-11-17T11:15:24.806Z,1.43
2022-11-17T11:17:51.544Z,2.20
2022-11-17T11:20:22.160Z,1.37
2022-11-17T11:23:17.939Z,1.33
2022-11-17T11:25:51.469Z,1.50
2022-11-17T11:28:54.278Z,1.37
2022-11-17T11:32:03.341Z,1.17
2022-11-17T11:34:54.219Z,1.60
2022-11-17T11:37:27.125Z,1.60
2022-11-17T11:40:21.701Z,1.70
2022-11-17T11:42:58.541Z,1.40
2022-11-17T11:46:01.165Z,1.50
2022-11-17T11:48:34.120Z,1.47
2022-11-17T11:51:03.977Z,1.40
2022-11-17T11:53:51.733Z,1.43
2022-11-17T11:56:39.373Z,1.40
2022-11-17T11:59:13.959Z,1.17
2022-11-17T12:01:59.471Z,1.20
2022-11-17T12:05:10.072Z,1.50
2022-11-17T12:07:43.316Z,1.40
2022-11-17T12:10:32.770Z,1.50
2022-11-17T12:13:00.184Z,1.60
2022-11-17T12:15:26.852Z,1.47
2022-11-17T12:17:57.313Z,1.60
2022-11-17T12:20:40.665Z,1.20
2022-11-17T12:23:23.798Z,0.83
2022-11-17T12:25:54.511Z,1.00
2022-11-17T12:28:41.000Z,1.10
2022-11-17T12:31:44.221Z,0.73
2022-11-17T12:34:21.790Z,0.90
2022-11-17T12:37:14.698Z,0.90
2022-11-17T12:40:23.374Z,1.00
2022-11-17T12:43:14.941Z,0.83
2022-11-17T12:45:59.731Z,0.80
2022-11-17T12:48:35.105Z,0.83
2022-11-17T12:51:14.347Z,0.73
2022-11-17T12:54:22.661Z,0.97
2022-11-17T12:57:05.050Z,0.70
2022-11-17T12:59:34.542Z,0.77
2022-11-17T13:02:20.645Z,0.70
2022-11-17T13:04:59.443Z,1.00
2022-11-17T13:07:26.902Z,0.67
2022-11-17T13:09:56.963Z,0.90
2022-11-17T13:12:26.315Z,0.97
2022-11-17T13:15:04.765Z,0.80
2022-11-17T13:17:32.781Z,1.10
2022-11-17T13:20:04.811Z,1.00
2022-11-17T13:22:31.424Z,1.37
2022-11-17T13:24:58.130Z,1.00
2022-11-17T13:27:28.627Z,1.17
2022-11-17T13:30:13.851Z,1.00
2022-11-17T13:32:42.968Z,1.30
2022-11-17T13:35:41.458Z,0.90
2022-11-17T13:38:24.185Z,1.10
2022-11-17T13:40:52.392Z,0.67
2022-11-17T13:43:23.602Z,0.87
2022-11-17T13:45:51.550Z,0.90
2022-11-17T13:48:37.213Z,1.27
2022-11-17T13:51:30.198Z,1.03
2022-11-17T13:54:09.869Z,1.80
2022-11-17T13:56:40.602Z,3.00
2022-11-17T13:59:28.410Z,4.00
2022-11-17T14:02:16.940Z,3.90
2022-11-17T14:05:18.341Z,4.37
2022-11-17T14:07:45.837Z,4.97
2022-11-17T14:10:15.503Z,5.03
2022-11-17T14:12:42.272Z,5.67
2022-11-17T14:15:27.100Z,4.47
2022-11-17T14:17:56.447Z,4.17
2022-11-17T14:20:26.126Z,3.80
2022-11-17T14:23:10.436Z,3.37
2022-11-17T14:25:55.237Z,3.10
2022-11-17T14:28:25.474Z,3.30
2022-11-17T14:30:56.916Z,2.60
2022-11-17T14:33:24.466Z,2.27
2022-11-17T14:35:56.950Z,2.33
2022-11-17T14:38:23.942Z,2.40
2022-11-17T14:40:52.061Z,2.27
2022-11-17T14:43:20.780Z,1.80
2022-11-17T14:45:48.964Z,1.80
2022-11-17T14:48:19.227Z,1.97
2022-11-17T14:50:46.856Z,1.40
2022-11-17T14:53:13.636Z,1.80
2022-11-17T14:55:40.201Z,1.30
2022-11-17T14:58:06.816Z,1.47
2022-11-17T15:00:33.417Z,1.10
2022-11-17T15:03:00.103Z,1.20
2022-11-17T15:05:27.430Z,1.60
2022-11-17T15:07:55.906Z,1.07
2022-11-17T15:10:22.487Z,1.27
2022-11-17T15:12:49.732Z,1.17
2022-11-17T15:15:17.956Z,1.20
2022-11-17T15:17:44.696Z,1.03
2022-11-17T15:20:11.820Z,0.90
2022-11-17T15:22:38.447Z,1.20
2022-11-17T15:25:05.426Z,1.20
2022-11-17T15:27:31.981Z,1.00
2022-11-17T15:29:58.565Z,1.00
2022-11-17T15:32:25.144Z,0.93
2022-11-17T15:34:51.706Z,1.20
2022-11-17T15:37:18.269Z,0.97
2022-11-17T15:39:44.841Z,0.83
2022-11-17T15:42:11.536Z,0.97
2022-11-17T15:44:38.165Z,1.33
2022-11-17T15:47:04.811Z,1.40
2022-11-17T15:49:31.417Z,0.80
2022-11-17T15:51:58.010Z,0.90
2022-11-17T15:54:24.561Z,1.10
2022-11-17T15:56:51.987Z,0.90
2022-11-17T15:59:19.029Z,0.90
2022-11-17T16:01:46.168Z,1.00
2022-11-17T16:04:15.822Z,1.20
2022-11-17T16:06:43.965Z,1.30
2022-11-17T16:09:11.890Z,1.47
2022-11-17T16:11:38.931Z,1.20
2022-11-17T16:14:05.752Z,0.83
2022-11-17T16:16:35.384Z,1.30
2022-11-17T16:19:02.356Z,1.13
2022-11-17T16:21:29.162Z,1.20
2022-11-17T16:23:57.479Z,1.10
2022-11-17T16:26:25.917Z,0.83
2022-11-17T16:29:00.620Z,1.13
2022-11-17T16:31:29.565Z,1.30
2022-11-17T16:33:58.584Z,0.83
2022-11-17T16:36:35.564Z,0.83
2022-11-17T16:39:03.085Z,0.87
2022-11-17T16:41:36.868Z,1.20
2022-11-17T16:44:07.886Z,1.33
2022-11-17T16:46:34.610Z,1.20
2022-11-17T16:49:03.904Z,1.10
2022-11-17T16:51:30.741Z,1.00
2022-11-17T16:54:00.485Z,1.40
2022-11-17T16:56:27.622Z,1.23
2022-11-17T16:58:54.722Z,1.47
2022-11-17T17:01:26.598Z,1.33
2022-11-17T17:03:58.240Z,1.20
2022-11-17T17:06:25.307Z,1.73
2022-11-17T17:09:03.067Z,1.40
2022-11-17T17:11:31.715Z,1.50
2022-11-17T17:14:03.357Z,1.60
2022-11-17T17:16:31.742Z,1.53
2022-11-17T17:19:00.461Z,1.50
2022-11-17T17:21:28.742Z,1.43
2022-11-17T17:23:56.433Z,1.20
2022-11-17T17:26:24.814Z,1.80
2022-11-17T17:28:54.038Z,1.70
2022-11-17T17:31:22.421Z,1.57
2022-11-17T17:33:50.551Z,1.90
2022-11-17T17:36:19.574Z,2.00
2022-11-17T17:38:51.625Z,1.60
2022-11-17T17:41:22.419Z,1.60
2022-11-17T17:43:58.240Z,1.63
2022-11-17T17:46:25.644Z,1.50
2022-11-17T17:48:52.601Z,1.67
2022-11-17T17:51:21.153Z,2.10
2022-11-17T17:53:49.966Z,1.60
2022-11-17T17:56:18.708Z,1.60
2022-11-17T17:58:48.582Z,1.80
2022-11-17T18:01:21.398Z,1.80
2022-11-17T18:03:49.629Z,1.60
2022-11-17T18:06:18.772Z,1.93
2022-11-17T18:08:46.495Z,1.70
2022-11-17T18:11:18.869Z,2.10
2022-11-17T18:13:48.032Z,1.50
2022-11-17T18:16:40.879Z,2.00
2022-11-17T18:19:08.696Z,1.43
2022-11-17T18:21:36.309Z,1.80
2022-11-17T18:24:04.195Z,1.63
2022-11-17T18:26:35.983Z,1.60
2022-11-17T18:29:05.303Z,1.50
2022-11-17T18:31:34.331Z,1.40
2022-11-17T18:34:03.722Z,1.77
2022-11-17T18:36:30.975Z,1.57
2022-11-17T18:38:58.559Z,2.00
2022-11-17T18:41:26.591Z,1.97
2022-11-17T18:43:54.389Z,2.20
2022-11-17T18:46:23.280Z,1.83
2022-11-17T18:48:51.834Z,1.70
2022-11-17T18:51:21.535Z,1.53
2022-11-17T18:53:53.163Z,2.00
2022-11-17T18:56:25.371Z,1.50
2022-11-17T18:58:52.356Z,1.83
2022-11-17T19:01:21.890Z,2.43
2022-11-17T19:03:51.202Z,2.27
2022-11-17T19:06:19.333Z,1.60
2022-11-17T19:08:46.637Z,2.10
2022-11-17T19:11:13.683Z,1.80
2022-11-17T19:13:41.678Z,1.57
2022-11-17T19:16:18.611Z,2.57
2022-11-17T19:18:46.819Z,1.83
2022-11-17T19:21:18.572Z,1.57
2022-11-17T19:23:51.402Z,1.80
2022-11-17T19:26:22.260Z,1.60
2022-11-17T19:28:49.408Z,1.60
2022-11-17T19:31:18.668Z,1.90
2022-11-17T19:33:47.043Z,1.50
2022-11-17T19:36:16.564Z,2.27
2022-11-17T19:38:45.428Z,1.73
2022-11-17T19:41:14.481Z,1.70
2022-11-17T19:43:45.093Z,1.47
2022-11-17T19:46:16.824Z,2.07
2022-11-17T19:48:44.299Z,2.10
2022-11-17T19:51:31.705Z,1.10
2022-11-17T19:54:01.778Z,1.50
2022-11-17T19:56:29.442Z,2.53
2022-11-17T19:58:56.413Z,2.17
2022-11-17T20:01:25.318Z,2.00
2022-11-17T20:03:52.389Z,2.07
2022-11-17T20:06:21.516Z,1.83
2022-11-17T20:08:48.523Z,1.90
2022-11-17T20:11:21.721Z,2.10
2022-11-17T20:13:48.900Z,2.20
2022-11-17T20:16:21.253Z,1.80
2022-11-17T20:18:53.212Z,1.77
2022-11-17T20:21:20.073Z,1.80
2022-11-17T20:23:47.556Z,1.90
2022-11-17T20:26:16.263Z,1.90
2022-11-17T20:28:43.254Z,2.40
2022-11-17T20:31:12.267Z,2.47
2022-11-17T20:33:39.755Z,2.23
2022-11-17T20:36:07.893Z,2.23
2022-11-17T20:38:35.831Z,3.08
2022-11-17T20:41:03.154Z,3.20
2022-11-17T20:43:30.127Z,2.37
2022-11-17T20:45:57.549Z,2.57
2022-11-17T20:48:24.869Z,2.40
2022-11-17T20:51:06.196Z,2.57
2022-11-17T20:53:33.799Z,2.43
2022-11-17T20:56:02.365Z,2.40
2022-11-17T20:58:29.904Z,2.60
2022-11-17T21:00:56.874Z,2.87
2022-11-17T21:03:24.069Z,3.03
2022-11-17T21:05:59.488Z,2.70
2022-11-17T21:08:29.028Z,2.67
2022-11-17T21:10:56.831Z,2.83
2022-11-17T21:13:24.220Z,2.83
2022-11-17T21:16:10.898Z,2.63
2022-11-17T21:18:44.057Z,2.80
2022-11-17T21:21:11.324Z,2.73
2022-11-17T21:23:39.686Z,3.03
2022-11-17T21:26:11.455Z,3.13
2022-11-17T21:28:38.940Z,3.40
2022-11-17T21:31:09.870Z,2.83
2022-11-17T21:33:37.180Z,3.03
2022-11-17T21:36:06.280Z,3.20
2022-11-17T21:38:32.883Z,3.10
2022-11-17T21:41:03.698Z,2.80
2022-11-17T21:43:30.810Z,3.00
2022-11-17T21:46:27.090Z,2.93
2022-11-17T21:48:55.263Z,3.30
2022-11-17T21:51:27.808Z,3.17
2022-11-17T21:53:59.240Z,3.10
2022-11-17T21:56:27.261Z,3.23
2022-11-17T21:58:58.541Z,3.20
2022-11-17T22:01:25.483Z,3.20
2022-11-17T22:03:52.159Z,4.00
2022-11-17T22:06:21.589Z,3.90
2022-11-17T22:08:48.303Z,3.33
2022-11-17T22:11:34.831Z,4.00
2022-11-17T22:14:13.079Z,3.87
2022-11-17T22:16:44.875Z,3.20
2022-11-17T22:19:12.803Z,3.03
2022-11-17T22:21:39.854Z,3.07
2022-11-17T22:24:09.925Z,3.67
2022-11-17T22:26:38.228Z,3.67
2022-11-17T22:29:07.934Z,4.63
2022-11-17T22:31:34.600Z,3.77
2022-11-17T22:34:01.432Z,3.47
2022-11-17T22:36:28.127Z,3.53
2022-11-17T22:38:55.153Z,4.07
2022-11-17T22:41:22.531Z,3.60
2022-11-17T22:43:56.760Z,3.83
2022-11-17T22:46:26.013Z,4.57
2022-11-17T22:48:53.320Z,3.83
2022-11-17T22:51:39.194Z,4.43
2022-11-17T22:54:06.767Z,4.13
2022-11-17T22:56:33.688Z,4.43
2022-11-17T22:59:01.183Z,4.00
2022-11-17T23:01:27.965Z,4.03
2022-11-17T23:03:54.691Z,4.27
2022-11-17T23:06:22.674Z,4.40
2022-11-17T23:08:49.770Z,6.30
2022-11-17T23:11:36.005Z,6.17
2022-11-17T23:14:03.543Z,4.70
2022-11-17T23:16:30.721Z,4.10
2022-11-17T23:18:57.871Z,3.97
2022-11-17T23:21:24.541Z,4.27
2022-11-17T23:23:51.855Z,5.53
2022-11-17T23:26:18.852Z,5.10
2022-11-17T23:28:45.452Z,4.93
2022-11-17T23:31:15.690Z,3.97
2022-11-17T23:33:44.892Z,4.33
2022-11-17T23:36:16.987Z,3.90
2022-11-17T23:38:44.283Z,4.73
2022-11-17T23:41:13.312Z,3.90
2022-11-17T23:43:40.570Z,4.37
2022-11-17T23:46:15.132Z,4.23
2022-11-17T23:48:42.433Z,4.93
2022-11-17T23:51:14.449Z,3.83
2022-11-17T23:53:41.861Z,3.63
2022-11-17T23:56:09.365Z,3.33
2022-11-17T23:58:36.741Z,3.17
